createdAt,value
2022-07-25T00:07:12.868Z,4.45
2022-07-25T00:17:15.990Z,4.55
2022-07-25T00:27:20.163Z,4.47
2022-07-25T00:37:30.115Z,4.57
2022-07-25T00:47:34.138Z,4.93
2022-07-25T00:57:39.168Z,4.05
2022-07-25T01:07:43.495Z,3.92
2022-07-25T01:17:45.556Z,4.18
2022-07-25T01:27:54.854Z,3.97
2022-07-25T01:38:01.405Z,4.50
2022-07-25T01:48:06.548Z,4.05
2022-07-25T01:58:11.634Z,4.30
2022-07-25T02:08:16.210Z,3.38
2022-07-25T02:18:19.281Z,3.33
2022-07-25T02:28:24.373Z,3.10
2022-07-25T02:38:26.553Z,3.40
2022-07-25T02:48:28.792Z,3.60
2022-07-25T02:58:35.385Z,4.22
2022-07-25T03:08:43.965Z,3.22
2022-07-25T03:18:51.178Z,2.95
2022-07-25T03:28:56.608Z,2.63
2022-07-25T03:39:01.067Z,3.63
2022-07-25T03:49:09.193Z,2.92
2022-07-25T03:59:13.670Z,3.30
2022-07-25T04:09:16.140Z,2.72
2022-07-25T04:19:20.477Z,3.03
2022-07-25T04:29:27.211Z,2.97
2022-07-25T04:39:31.727Z,3.40
2022-07-25T04:49:35.071Z,3.28
2022-07-25T04:59:48.447Z,3.15
2022-07-25T05:09:52.714Z,3.53
2022-07-25T05:19:54.783Z,2.58
2022-07-25T05:29:59.010Z,2.40
2022-07-25T05:40:01.375Z,2.80
2022-07-25T05:50:12.535Z,2.72
2022-07-25T06:00:17.318Z,2.45
2022-07-25T06:10:20.314Z,2.95
2022-07-25T06:20:22.322Z,2.30
2022-07-25T06:30:24.362Z,2.75
2022-07-25T06:40:28.775Z,3.00
2022-07-25T06:50:38.552Z,2.58
2022-07-25T07:00:40.869Z,2.53
2022-07-25T07:10:46.687Z,2.75
2022-07-25T07:20:52.418Z,2.60
2022-07-25T07:31:15.636Z,2.53
2022-07-25T07:41:20.617Z,2.40
2022-07-25T07:51:25.243Z,2.40
2022-07-25T08:01:29.577Z,2.40
2022-07-25T08:11:31.660Z,2.50
2022-07-25T08:21:36.126Z,2.08
2022-07-25T08:31:38.457Z,2.53
2022-07-25T08:41:43.742Z,2.42
2022-07-25T08:51:46.452Z,2.40
2022-07-25T09:01:53.172Z,2.28
2022-07-25T09:11:55.273Z,2.28
2022-07-25T09:22:10.217Z,2.70
2022-07-25T09:32:17.407Z,2.47
2022-07-25T09:42:32.826Z,2.33
2022-07-25T09:52:35.603Z,3.20
2022-07-25T10:02:46.231Z,2.45
2022-07-25T10:13:11.445Z,1.77
2022-07-25T10:23:29.511Z,2.60
2022-07-25T10:33:41.706Z,2.85
2022-07-25T10:43:49.561Z,2.65
2022-07-25T10:53:51.575Z,2.60
2022-07-25T11:04:01.467Z,2.45
2022-07-25T11:14:15.999Z,2.63
2022-07-25T11:24:18.216Z,2.70
2022-07-25T11:34:26.822Z,2.53
2022-07-25T11:44:38.062Z,2.50
2022-07-25T11:54:55.497Z,2.58
2022-07-25T12:05:02.682Z,2.45
2022-07-25T12:15:05.203Z,2.78
2022-07-25T12:25:07.770Z,2.63
2022-07-25T12:35:15.782Z,2.35
2022-07-25T12:45:18.248Z,2.22
2022-07-25T12:55:20.953Z,2.13
2022-07-25T13:05:25.982Z,2.20
2022-07-25T13:15:30.820Z,2.63
2022-07-25T13:25:37.923Z,2.40
2022-07-25T13:35:40.129Z,2.40
2022-07-25T13:45:42.761Z,2.72
2022-07-25T13:55:47.707Z,2.30
2022-07-25T14:05:52.540Z,2.55
2022-07-25T14:15:56.863Z,2.20
2022-07-25T14:26:01.300Z,1.85
2022-07-25T14:36:11.010Z,2.13
2022-07-25T14:46:13.096Z,2.88
2022-07-25T14:56:16.149Z,2.72
2022-07-25T15:06:19.000Z,2.42
2022-07-25T15:16:21.261Z,2.03
2022-07-25T15:26:23.683Z,2.20
2022-07-25T15:36:29.943Z,2.33
2022-07-25T15:46:33.056Z,2.45
2022-07-25T15:56:35.316Z,2.25
2022-07-25T16:06:42.465Z,2.35
2022-07-25T16:16:47.099Z,2.10
2022-07-25T16:26:49.302Z,2.00
2022-07-25T16:36:54.486Z,2.00
2022-07-25T16:46:59.154Z,2.22
2022-07-25T16:57:01.251Z,2.33
2022-07-25T17:07:08.060Z,1.98
2022-07-25T17:17:10.091Z,2.10
2022-07-25T17:27:12.143Z,2.25
2022-07-25T17:37:16.452Z,2.38
2022-07-25T17:47:18.715Z,2.08
2022-07-25T17:57:22.701Z,2.15
2022-07-25T18:07:28.487Z,2.13
2022-07-25T18:17:30.712Z,1.98
2022-07-25T18:27:35.299Z,1.95
2022-07-25T18:37:37.897Z,1.98
2022-07-25T18:47:40.508Z,2.25
2022-07-25T18:57:42.790Z,2.15
2022-07-25T19:07:44.957Z,2.25
2022-07-25T19:17:51.871Z,1.60
2022-07-25T19:27:54.297Z,2.80
2022-07-25T19:37:56.336Z,2.95
2022-07-25T19:47:59.839Z,2.83
2022-07-25T19:58:05.303Z,2.72
2022-07-25T20:08:08.535Z,3.00
2022-07-25T20:18:19.280Z,3.50
2022-07-25T20:28:22.842Z,3.85
2022-07-25T20:38:29.218Z,3.33
2022-07-25T20:48:35.231Z,3.70
2022-07-25T20:58:37.451Z,4.10
2022-07-25T21:08:39.859Z,4.32
2022-07-25T21:18:44.761Z,4.10
2022-07-25T21:28:47.100Z,5.00
2022-07-25T21:38:51.640Z,4.22
2022-07-25T21:49:17.572Z,5.00
2022-07-25T21:59:43.499Z,4.68
2022-07-25T22:09:47.110Z,4.40
2022-07-25T22:19:49.643Z,4.68
2022-07-25T22:29:52.101Z,5.13
2022-07-25T22:40:00.921Z,4.57
2022-07-25T22:50:04.850Z,4.35
2022-07-25T23:00:09.463Z,5.30
2022-07-25T23:10:14.411Z,4.57
2022-07-25T23:20:17.180Z,6.30
2022-07-25T23:30:21.509Z,6.90
2022-07-25T23:40:31.142Z,7.55
2022-07-25T23:50:34.998Z,7.47
